createdAt,value
2018-11-10T00:00:40.039Z,17.17
2018-11-10T00:03:12.689Z,16.40
2018-11-10T00:05:44.801Z,16.63
2018-11-10T00:08:16.859Z,14.70
2018-11-10T00:10:49.414Z,15.47
2018-11-10T00:13:21.650Z,16.33
2018-11-10T00:15:54.206Z,15.00
2018-11-10T00:18:26.513Z,14.83
2018-11-10T00:20:59.090Z,13.90
2018-11-10T00:23:31.667Z,14.20
2018-11-10T00:26:04.370Z,14.47
2018-11-10T00:28:36.809Z,15.63
2018-11-10T00:31:09.481Z,13.77
2018-11-10T00:33:41.995Z,14.37
2018-11-10T00:36:14.603Z,15.03
2018-11-10T00:38:47.136Z,13.97
2018-11-10T00:41:19.632Z,14.87
2018-11-10T00:43:52.256Z,12.83
2018-11-10T00:46:24.589Z,14.63
2018-11-10T00:48:57.090Z,11.70
2018-11-10T00:51:29.701Z,10.70
2018-11-10T00:54:02.133Z,11.27
2018-11-10T00:56:34.469Z,12.40
2018-11-10T00:59:06.999Z,11.87
2018-11-10T01:01:39.315Z,11.77
2018-11-10T01:04:12.147Z,10.30
2018-11-10T01:06:44.892Z,10.57
2018-11-10T01:09:17.330Z,10.57
2018-11-10T01:11:49.722Z,11.20
2018-11-10T01:14:21.950Z,10.17
2018-11-10T01:16:54.206Z,11.17
2018-11-10T01:19:26.747Z,11.00
2018-11-10T01:21:59.085Z,11.08
2018-11-10T01:24:31.456Z,9.07
2018-11-10T01:27:03.967Z,10.60
2018-11-10T01:29:36.309Z,9.83
2018-11-10T01:32:08.787Z,11.80
2018-11-10T01:34:41.234Z,10.93
2018-11-10T01:37:13.748Z,14.10
2018-11-10T01:39:45.882Z,11.80
2018-11-10T01:42:18.260Z,12.30
2018-11-10T01:44:50.326Z,11.80
2018-11-10T01:47:23.102Z,12.83
2018-11-10T01:49:55.872Z,10.75
2018-11-10T01:52:28.279Z,11.90
2018-11-10T01:55:00.495Z,12.00
2018-11-10T01:57:32.987Z,10.10
2018-11-10T02:00:05.760Z,12.00
2018-11-10T02:02:38.035Z,12.00
2018-11-10T02:05:10.412Z,11.87
2018-11-10T02:07:42.750Z,12.00
2018-11-10T02:10:15.338Z,13.95
2018-11-10T02:12:47.760Z,12.65
2018-11-10T02:15:19.830Z,12.30
2018-11-10T02:17:52.028Z,11.90
2018-11-10T02:20:24.172Z,11.53
2018-11-10T02:22:56.733Z,15.05
2018-11-10T02:25:29.376Z,14.45
2018-11-10T02:28:02.028Z,14.78
2018-11-10T02:30:34.428Z,15.30
2018-11-10T02:33:07.025Z,13.72
2018-11-10T02:35:39.471Z,12.23
2018-11-10T02:38:12.255Z,11.68
2018-11-10T02:40:44.334Z,12.68
2018-11-10T02:43:16.765Z,11.55
2018-11-10T02:45:48.907Z,11.05
2018-11-10T02:48:21.468Z,12.05
2018-11-10T02:50:54.269Z,12.03
2018-11-10T02:53:26.614Z,12.18
2018-11-10T02:55:59.205Z,12.17
2018-11-10T02:58:31.399Z,15.43
2018-11-10T03:01:03.724Z,14.25
2018-11-10T03:03:35.770Z,14.13
2018-11-10T03:06:07.961Z,16.12
2018-11-10T03:08:41.142Z,15.35
2018-11-10T03:11:13.482Z,14.75
2018-11-10T03:13:45.827Z,15.77
2018-11-10T03:16:18.168Z,14.53
2018-11-10T03:18:50.422Z,12.55
2018-11-10T03:21:22.912Z,12.78
2018-11-10T03:23:55.307Z,12.95
2018-11-10T03:26:27.426Z,12.35
2018-11-10T03:28:59.874Z,12.05
2018-11-10T03:31:32.622Z,11.28
2018-11-10T03:34:04.734Z,16.50
2018-11-10T03:36:37.226Z,11.33
2018-11-10T03:39:13.744Z,11.03
2018-11-10T03:41:46.556Z,10.75
2018-11-10T03:44:18.987Z,10.03
2018-11-10T03:46:51.501Z,10.25
2018-11-10T03:49:23.779Z,12.37
2018-11-10T03:51:56.021Z,10.08
2018-11-10T03:54:28.860Z,9.98
2018-11-10T03:57:01.540Z,10.20
2018-11-10T03:59:34.095Z,10.93
2018-11-10T04:02:06.749Z,11.48
2018-11-10T04:04:39.993Z,11.95
2018-11-10T04:07:12.584Z,12.55
2018-11-10T04:09:44.983Z,11.80
2018-11-10T04:12:17.497Z,12.25
2018-11-10T04:14:49.682Z,13.72
2018-11-10T04:17:22.227Z,13.68
2018-11-10T04:19:54.306Z,12.90
2018-11-10T04:22:30.957Z,13.78
2018-11-10T04:25:04.592Z,13.00
2018-11-10T04:27:36.906Z,14.10
2018-11-10T04:30:10.098Z,14.55
2018-11-10T04:32:42.313Z,14.78
2018-11-10T04:35:14.666Z,15.20
2018-11-10T04:37:46.871Z,14.45
2018-11-10T04:40:19.211Z,14.17
2018-11-10T04:42:51.561Z,14.60
2018-11-10T04:45:24.210Z,14.43
2018-11-10T04:47:56.669Z,12.87
2018-11-10T04:50:29.146Z,14.10
2018-11-10T04:53:01.626Z,13.90
2018-11-10T04:55:34.072Z,14.75
2018-11-10T04:58:06.447Z,15.32
2018-11-10T05:00:38.687Z,15.38
2018-11-10T05:03:11.206Z,15.40
2018-11-10T05:05:43.797Z,15.28
2018-11-10T05:08:16.040Z,15.05
2018-11-10T05:10:48.334Z,14.17
2018-11-10T05:13:20.690Z,13.90
2018-11-10T05:15:52.864Z,14.63
2018-11-10T05:18:25.185Z,14.93
2018-11-10T05:20:57.608Z,15.93
2018-11-10T05:23:29.724Z,13.60
2018-11-10T05:26:02.202Z,14.35
2018-11-10T05:28:34.342Z,17.20
2018-11-10T05:31:06.822Z,16.20
2018-11-10T05:33:39.179Z,16.70
2018-11-10T05:36:11.029Z,17.33
2018-11-10T05:38:43.695Z,17.95
2018-11-10T05:41:15.931Z,17.50
2018-11-10T05:43:47.959Z,17.30
2018-11-10T05:46:20.235Z,17.32
2018-11-10T05:48:52.284Z,14.90
2018-11-10T05:51:24.535Z,14.20
2018-11-10T05:53:56.433Z,15.63
2018-11-10T05:56:29.329Z,13.78
2018-11-10T05:59:01.166Z,14.90
2018-11-10T06:01:33.693Z,14.13
2018-11-10T06:04:05.881Z,14.03
2018-11-10T06:06:38.069Z,13.63
2018-11-10T06:09:12.002Z,14.03
2018-11-10T06:11:43.887Z,13.90
2018-11-10T06:14:16.125Z,13.37
2018-11-10T06:16:48.500Z,14.53
2018-11-10T06:19:20.904Z,13.10
2018-11-10T06:21:53.066Z,12.20
2018-11-10T06:24:25.222Z,13.43
2018-11-10T06:26:57.042Z,13.00
2018-11-10T06:29:29.116Z,12.80
2018-11-10T06:32:07.339Z,13.58
2018-11-10T06:34:39.827Z,12.68
2018-11-10T06:37:12.649Z,13.70
2018-11-10T06:39:45.115Z,12.28
2018-11-10T06:42:17.599Z,12.63
2018-11-10T06:44:49.388Z,12.80
2018-11-10T06:47:21.131Z,12.13
2018-11-10T06:49:53.482Z,12.20
2018-11-10T06:52:25.882Z,11.23
2018-11-10T06:54:58.265Z,11.45
2018-11-10T06:57:30.710Z,11.00
2018-11-10T07:00:03.098Z,12.18
2018-11-10T07:02:35.777Z,10.63
2018-11-10T07:05:08.603Z,11.63
2018-11-10T07:07:41.463Z,10.63
2018-11-10T07:10:13.721Z,12.53
2018-11-10T07:12:45.932Z,12.33
2018-11-10T07:15:18.484Z,10.90
2018-11-10T07:17:51.680Z,10.87
2018-11-10T07:20:23.690Z,12.15
2018-11-10T07:22:56.253Z,11.38
2018-11-10T07:25:28.242Z,12.77
2018-11-10T07:28:00.861Z,10.93
2018-11-10T07:30:32.982Z,12.53
2018-11-10T07:33:05.413Z,13.58
2018-11-10T07:35:37.700Z,13.08
2018-11-10T07:38:10.122Z,11.93
2018-11-10T07:40:42.714Z,13.83
2018-11-10T07:43:15.052Z,15.35
2018-11-10T07:45:47.466Z,15.53
2018-11-10T07:48:19.866Z,15.28
2018-11-10T07:50:51.903Z,16.10
2018-11-10T07:53:24.241Z,15.25
2018-11-10T07:55:56.470Z,15.88
2018-11-10T07:58:28.799Z,17.05
2018-11-10T08:01:01.329Z,16.80
2018-11-10T08:03:33.704Z,14.03
2018-11-10T08:06:06.073Z,18.42
2018-11-10T08:08:38.430Z,15.78
2018-11-10T08:11:10.842Z,16.02
2018-11-10T08:13:43.396Z,15.25
2018-11-10T08:16:15.845Z,13.43
2018-11-10T08:18:48.508Z,14.13
2018-11-10T08:21:20.801Z,13.48
2018-11-10T08:23:53.191Z,16.12
2018-11-10T08:26:25.368Z,16.77
2018-11-10T08:28:58.473Z,15.75
2018-11-10T08:31:30.974Z,14.25
2018-11-10T08:34:03.200Z,16.90
2018-11-10T08:36:35.532Z,18.37
2018-11-10T08:39:09.427Z,17.77
2018-11-10T08:41:41.885Z,14.10
2018-11-10T08:44:14.109Z,18.45
2018-11-10T08:46:46.515Z,17.48
2018-11-10T08:49:19.125Z,16.90
2018-11-10T08:51:51.409Z,18.98
2018-11-10T08:54:23.964Z,20.02
2018-11-10T08:56:56.275Z,19.45
2018-11-10T08:59:28.434Z,20.35
2018-11-10T09:02:01.039Z,22.05
2018-11-10T09:04:33.200Z,22.30
2018-11-10T09:07:05.522Z,21.20
2018-11-10T09:09:37.979Z,21.75
2018-11-10T09:12:11.361Z,21.35
2018-11-10T09:14:43.905Z,23.42
2018-11-10T09:17:16.242Z,17.70
2018-11-10T09:19:48.751Z,17.48
2018-11-10T09:22:20.903Z,18.62
2018-11-10T09:24:53.330Z,23.00
2018-11-10T09:27:25.896Z,21.95
2018-11-10T09:29:59.497Z,21.68
2018-11-10T09:32:31.835Z,22.42
2018-11-10T09:35:04.100Z,28.40
2018-11-10T09:37:37.013Z,26.52
2018-11-10T09:40:10.300Z,24.27
2018-11-10T09:42:42.777Z,25.88
2018-11-10T09:45:16.666Z,22.55
2018-11-10T09:47:48.922Z,23.05
2018-11-10T09:50:22.726Z,25.10
2018-11-10T09:52:54.995Z,24.40
2018-11-10T09:55:27.214Z,25.50
2018-11-10T09:57:59.530Z,26.82
2018-11-10T10:00:32.972Z,26.68
2018-11-10T10:03:05.465Z,26.27
2018-11-10T10:05:38.083Z,25.40
2018-11-10T10:08:10.497Z,25.10
2018-11-10T10:10:42.931Z,22.65
2018-11-10T10:13:15.383Z,24.02
2018-11-10T10:15:47.818Z,24.72
2018-11-10T10:18:20.102Z,23.98
2018-11-10T10:20:52.498Z,23.65
2018-11-10T10:23:25.058Z,20.40
2018-11-10T10:25:57.685Z,22.60
2018-11-10T10:28:30.082Z,22.45
2018-11-10T10:31:02.396Z,21.95
2018-11-10T10:33:34.541Z,23.02
2018-11-10T10:36:06.919Z,21.80
2018-11-10T10:38:39.133Z,21.90
2018-11-10T10:41:11.779Z,23.70
2018-11-10T10:43:44.039Z,20.25
2018-11-10T10:46:18.357Z,21.50
2018-11-10T10:48:50.669Z,20.70
2018-11-10T10:51:23.113Z,19.77
2018-11-10T10:53:55.688Z,22.73
2018-11-10T10:56:28.369Z,21.82
2018-11-10T10:59:00.825Z,18.27
2018-11-10T11:01:37.779Z,20.48
2018-11-10T11:04:14.676Z,20.95
2018-11-10T11:06:47.145Z,21.33
2018-11-10T11:09:19.543Z,19.77
2018-11-10T11:11:52.126Z,20.45
2018-11-10T11:14:24.462Z,20.08
2018-11-10T11:16:57.042Z,18.57
2018-11-10T11:19:29.095Z,19.90
2018-11-10T11:22:01.571Z,20.37
2018-11-10T11:24:34.038Z,20.12
2018-11-10T11:27:06.715Z,19.92
2018-11-10T11:29:39.021Z,20.48
2018-11-10T11:32:11.406Z,20.80
2018-11-10T11:34:43.770Z,20.82
2018-11-10T11:37:16.097Z,21.62
2018-11-10T11:39:48.308Z,21.60
2018-11-10T11:42:20.881Z,23.05
2018-11-10T11:44:53.299Z,22.55
2018-11-10T11:47:25.765Z,21.00
2018-11-10T11:49:58.175Z,22.22
2018-11-10T11:52:30.479Z,23.30
2018-11-10T11:55:02.849Z,21.95
2018-11-10T11:57:35.371Z,20.32
2018-11-10T12:00:08.527Z,19.65
2018-11-10T12:02:41.022Z,21.17
2018-11-10T12:05:15.036Z,19.73
2018-11-10T12:07:47.592Z,22.22
2018-11-10T12:10:21.127Z,21.77
2018-11-10T12:12:53.439Z,19.82
2018-11-10T12:15:25.941Z,20.65
2018-11-10T12:17:58.537Z,21.17
2018-11-10T12:20:30.955Z,21.20
2018-11-10T12:23:03.261Z,21.93
2018-11-10T12:25:35.454Z,23.92
2018-11-10T12:28:07.983Z,23.83
2018-11-10T12:30:40.180Z,22.73
2018-11-10T12:33:12.567Z,23.25
2018-11-10T12:35:44.940Z,21.68
2018-11-10T12:38:17.357Z,23.32
2018-11-10T12:40:49.658Z,21.42
2018-11-10T12:43:21.869Z,22.45
2018-11-10T12:45:54.124Z,24.37
2018-11-10T12:48:26.234Z,24.25
2018-11-10T12:50:58.543Z,24.72
2018-11-10T12:53:30.958Z,25.82
2018-11-10T12:56:03.370Z,26.52
2018-11-10T12:58:35.918Z,24.50
2018-11-10T13:01:08.074Z,24.92
2018-11-10T13:03:40.455Z,23.32
2018-11-10T13:06:12.986Z,27.00
2018-11-10T13:08:45.249Z,26.95
2018-11-10T13:11:17.618Z,25.00
2018-11-10T13:13:49.716Z,26.73
2018-11-10T13:16:22.199Z,26.77
2018-11-10T13:18:54.622Z,27.30
2018-11-10T13:21:27.551Z,26.70
2018-11-10T13:24:00.040Z,27.02
2018-11-10T13:26:32.218Z,27.65
2018-11-10T13:29:04.968Z,28.10
2018-11-10T13:31:37.588Z,28.85
2018-11-10T13:34:09.919Z,27.02
2018-11-10T13:36:42.282Z,27.80
2018-11-10T13:39:14.825Z,28.02
2018-11-10T13:41:47.242Z,30.95
2018-11-10T13:44:19.539Z,28.42
2018-11-10T13:46:51.840Z,27.00
2018-11-10T13:49:24.268Z,27.30
2018-11-10T13:51:56.675Z,26.48
2018-11-10T13:54:28.772Z,28.40
2018-11-10T13:57:01.348Z,28.15
2018-11-10T13:59:33.582Z,28.95
2018-11-10T14:02:06.316Z,26.95
2018-11-10T14:04:39.322Z,31.42
2018-11-10T14:07:11.664Z,28.02
2018-11-10T14:09:44.246Z,27.62
2018-11-10T14:12:16.631Z,28.07
2018-11-10T14:14:48.773Z,27.02
2018-11-10T14:17:21.366Z,26.33
2018-11-10T14:19:53.546Z,26.27
2018-11-10T14:22:25.945Z,27.93
2018-11-10T14:24:58.259Z,25.43
2018-11-10T14:27:30.474Z,29.55
2018-11-10T14:30:03.061Z,25.45
2018-11-10T14:32:35.182Z,25.65
2018-11-10T14:35:07.880Z,27.77
2018-11-10T14:37:40.276Z,27.37
2018-11-10T14:40:14.188Z,26.33
2018-11-10T14:42:46.702Z,23.42
2018-11-10T14:45:20.115Z,26.65
2018-11-10T14:47:52.353Z,22.00
2018-11-10T14:50:24.913Z,22.90
2018-11-10T14:52:57.263Z,22.93
2018-11-10T14:55:29.702Z,24.43
2018-11-10T14:58:02.075Z,20.95
2018-11-10T15:00:34.404Z,21.27
2018-11-10T15:03:06.786Z,19.30
2018-11-10T15:05:39.123Z,19.65
2018-11-10T15:08:11.230Z,19.35
2018-11-10T15:10:43.527Z,19.25
2018-11-10T15:13:15.965Z,21.00
2018-11-10T15:15:48.253Z,22.45
2018-11-10T15:18:20.963Z,21.27
2018-11-10T15:20:53.323Z,18.65
2018-11-10T15:23:25.798Z,21.70
2018-11-10T15:25:58.387Z,18.55
2018-11-10T15:28:30.744Z,19.12
2018-11-10T15:31:02.882Z,18.55
2018-11-10T15:33:35.258Z,19.10
2018-11-10T15:36:07.658Z,16.10
2018-11-10T15:38:39.810Z,20.88
2018-11-10T15:41:12.685Z,19.95
2018-11-10T15:43:46.893Z,18.95
2018-11-10T15:46:19.149Z,19.62
2018-11-10T15:48:51.694Z,18.02
2018-11-10T15:51:24.291Z,18.75
2018-11-10T15:53:56.350Z,19.60
2018-11-10T15:56:28.800Z,18.92
2018-11-10T15:59:01.356Z,17.95
2018-11-10T16:01:33.991Z,16.20
2018-11-10T16:04:06.194Z,18.05
2018-11-10T16:06:38.613Z,17.42
2018-11-10T16:09:13.544Z,17.95
2018-11-10T16:11:46.196Z,16.40
2018-11-10T16:14:18.403Z,18.37
2018-11-10T16:16:51.304Z,17.12
2018-11-10T16:19:23.860Z,15.18
2018-11-10T16:21:56.093Z,15.10
2018-11-10T16:24:28.826Z,14.65
2018-11-10T16:27:01.258Z,15.65
2018-11-10T16:29:33.557Z,14.87
2018-11-10T16:32:05.778Z,14.65
2018-11-10T16:34:38.103Z,15.05
2018-11-10T16:37:10.614Z,14.90
2018-11-10T16:39:43.078Z,15.10
2018-11-10T16:42:15.528Z,16.25
2018-11-10T16:44:48.297Z,17.23
2018-11-10T16:47:20.408Z,14.60
2018-11-10T16:49:52.796Z,14.18
2018-11-10T16:52:25.292Z,15.23
2018-11-10T16:54:57.393Z,11.30
2018-11-10T16:57:30.172Z,11.85
2018-11-10T17:00:02.556Z,13.10
2018-11-10T17:02:34.746Z,11.60
2018-11-10T17:05:07.637Z,10.82
2018-11-10T17:07:40.387Z,10.60
2018-11-10T17:10:15.223Z,11.25
2018-11-10T17:12:47.669Z,10.15
2018-11-10T17:15:19.770Z,9.90
2018-11-10T17:17:52.337Z,9.25
2018-11-10T17:20:24.833Z,9.45
2018-11-10T17:22:57.399Z,8.23
2018-11-10T17:25:29.451Z,9.30
2018-11-10T17:28:02.243Z,11.10
2018-11-10T17:30:34.376Z,11.00
2018-11-10T17:33:06.674Z,10.68
2018-11-10T17:35:39.506Z,10.00
2018-11-10T17:38:12.294Z,10.58
2018-11-10T17:40:44.660Z,8.35
2018-11-10T17:43:17.121Z,7.00
2018-11-10T17:45:49.194Z,6.90
2018-11-10T17:48:21.647Z,7.37
2018-11-10T17:50:54.059Z,7.30
2018-11-10T17:53:26.433Z,8.33
2018-11-10T17:55:58.679Z,7.92
2018-11-10T17:58:31.199Z,7.65
2018-11-10T18:01:03.544Z,8.45
2018-11-10T18:03:35.816Z,8.60
2018-11-10T18:06:08.334Z,8.90
2018-11-10T18:08:40.898Z,8.50
2018-11-10T18:11:13.021Z,9.08
2018-11-10T18:13:45.393Z,7.92
2018-11-10T18:16:17.565Z,8.00
2018-11-10T18:18:50.059Z,8.93
2018-11-10T18:21:22.551Z,6.90
2018-11-10T18:23:55.067Z,9.40
2018-11-10T18:26:27.296Z,9.40
2018-11-10T18:28:59.619Z,9.45
2018-11-10T18:31:31.661Z,8.93
2018-11-10T18:34:03.923Z,9.45
2018-11-10T18:36:36.616Z,11.00
2018-11-10T18:39:11.399Z,11.53
2018-11-10T18:41:43.958Z,11.53
2018-11-10T18:44:16.402Z,11.97
2018-11-10T18:46:49.055Z,9.68
2018-11-10T18:49:21.451Z,12.73
2018-11-10T18:51:53.799Z,11.85
2018-11-10T18:54:26.137Z,11.00
2018-11-10T18:56:58.529Z,11.37
2018-11-10T18:59:30.655Z,9.77
2018-11-10T19:02:02.988Z,12.40
2018-11-10T19:04:35.402Z,11.33
2018-11-10T19:07:08.167Z,11.35
2018-11-10T19:09:40.974Z,12.58
2018-11-10T19:12:13.144Z,10.97
2018-11-10T19:14:45.710Z,12.93
2018-11-10T19:17:18.063Z,11.97
2018-11-10T19:19:50.316Z,11.00
2018-11-10T19:22:22.566Z,10.90
2018-11-10T19:24:54.920Z,10.33
2018-11-10T19:27:27.203Z,10.67
2018-11-10T19:29:59.575Z,13.00
2018-11-10T19:32:32.178Z,12.90
2018-11-10T19:35:04.338Z,12.33
2018-11-10T19:37:36.726Z,11.50
2018-11-10T19:40:10.048Z,13.50
2018-11-10T19:42:43.335Z,11.60
2018-11-10T19:45:15.681Z,11.87
2018-11-10T19:47:48.359Z,12.83
2018-11-10T19:50:21.144Z,11.70
2018-11-10T19:52:53.734Z,11.20
2018-11-10T19:55:26.313Z,10.80
2018-11-10T19:57:58.616Z,10.80
2018-11-10T20:00:30.663Z,11.90
2018-11-10T20:03:02.788Z,10.87
2018-11-10T20:05:35.219Z,10.73
2018-11-10T20:08:07.654Z,11.03
2018-11-10T20:10:40.555Z,10.23
2018-11-10T20:13:13.094Z,10.37
2018-11-10T20:15:45.551Z,10.80
2018-11-10T20:18:18.137Z,9.43
2018-11-10T20:20:50.292Z,10.60
2018-11-10T20:23:22.679Z,10.50
2018-11-10T20:25:55.056Z,10.40
2018-11-10T20:28:27.428Z,10.03
2018-11-10T20:31:00.006Z,10.93
2018-11-10T20:33:32.323Z,9.70
2018-11-10T20:36:04.365Z,8.70
2018-11-10T20:38:36.873Z,9.13
2018-11-10T20:41:09.784Z,9.17
2018-11-10T20:43:41.875Z,9.90
2018-11-10T20:46:14.237Z,8.90
2018-11-10T20:48:46.558Z,8.10
2018-11-10T20:51:19.090Z,7.60
2018-11-10T20:53:51.503Z,8.30
2018-11-10T20:56:23.905Z,7.93
2018-11-10T20:58:56.664Z,7.57
2018-11-10T21:01:29.184Z,7.50
2018-11-10T21:04:01.373Z,8.00
2018-11-10T21:06:33.945Z,8.58
2018-11-10T21:09:08.951Z,7.85
2018-11-10T21:11:41.454Z,7.87
2018-11-10T21:14:13.893Z,8.37
2018-11-10T21:16:46.160Z,8.57
2018-11-10T21:19:18.467Z,8.17
2018-11-10T21:21:51.035Z,7.77
2018-11-10T21:24:23.105Z,7.70
2018-11-10T21:26:55.474Z,7.80
2018-11-10T21:29:27.888Z,7.90
2018-11-10T21:32:00.100Z,7.73
2018-11-10T21:34:32.434Z,8.10
2018-11-10T21:37:04.736Z,9.17
2018-11-10T21:39:37.009Z,8.03
2018-11-10T21:42:09.321Z,8.40
2018-11-10T21:44:41.735Z,9.87
2018-11-10T21:47:14.152Z,8.70
2018-11-10T21:49:46.502Z,8.77
2018-11-10T21:52:18.883Z,9.00
2018-11-10T21:54:51.422Z,9.13
2018-11-10T21:57:23.894Z,8.77
2018-11-10T21:59:56.310Z,8.60
2018-11-10T22:02:28.703Z,9.50
2018-11-10T22:05:00.975Z,8.83
2018-11-10T22:07:33.829Z,8.70
2018-11-10T22:10:06.626Z,9.50
2018-11-10T22:12:39.281Z,10.43
2018-11-10T22:15:14.043Z,9.90
2018-11-10T22:17:47.192Z,8.70
2018-11-10T22:20:22.095Z,9.57
2018-11-10T22:22:54.222Z,8.40
2018-11-10T22:25:26.508Z,8.90
2018-11-10T22:27:58.757Z,8.00
2018-11-10T22:30:31.482Z,7.90
2018-11-10T22:33:03.857Z,9.47
2018-11-10T22:35:36.647Z,8.70
2018-11-10T22:38:09.289Z,9.00
2018-11-10T22:40:41.659Z,7.17
2018-11-10T22:43:14.085Z,9.47
2018-11-10T22:45:46.082Z,7.50
2018-11-10T22:48:18.625Z,7.50
2018-11-10T22:50:50.894Z,7.23
2018-11-10T22:53:23.268Z,7.70
2018-11-10T22:55:55.778Z,6.97
2018-11-10T22:58:28.308Z,7.47
2018-11-10T23:01:07.023Z,7.20
2018-11-10T23:03:40.787Z,7.60
2018-11-10T23:06:13.067Z,8.40
2018-11-10T23:08:45.447Z,7.43
2018-11-10T23:11:17.850Z,7.97
2018-11-10T23:13:50.260Z,7.53
2018-11-10T23:16:22.538Z,7.97
2018-11-10T23:18:54.804Z,7.33
2018-11-10T23:21:27.022Z,7.13
2018-11-10T23:23:59.222Z,7.47
2018-11-10T23:26:31.619Z,7.03
2018-11-10T23:29:04.098Z,8.47
2018-11-10T23:31:36.677Z,6.97
2018-11-10T23:34:08.989Z,7.50
2018-11-10T23:36:41.227Z,7.20
2018-11-10T23:39:14.415Z,7.77
2018-11-10T23:41:46.960Z,8.83
2018-11-10T23:44:19.558Z,9.10
2018-11-10T23:46:51.847Z,8.13
2018-11-10T23:49:24.246Z,8.23
2018-11-10T23:51:56.779Z,8.97
2018-11-10T23:54:29.101Z,10.57
2018-11-10T23:57:01.242Z,12.50
2018-11-10T23:59:33.544Z,11.60
